sensor_id;sensor_type;location;lat;lon;timestamp;P1;durP1;ratioP1;P2;durP2;ratioP2
13202;SDS011;6666;51.626;7.530;2022-12-08T00:01:58;15.23;;;8.00;;
13202;SDS011;6666;51.626;7.530;2022-12-08T00:04:28;15.00;;;7.50;;
13202;SDS011;6666;51.626;7.530;2022-12-08T00:07:17;17.10;;;7.37;;
13202;SDS011;6666;51.626;7.530;2022-12-08T00:09:59;15.73;;;7.22;;
13202;SDS011;6666;51.626;7.530;2022-12-08T00:12:47;12.85;;;7.45;;
13202;SDS011;6666;51.626;7.530;2022-12-08T00:15:17;12.83;;;6.43;;
13202;SDS011;6666;51.626;7.530;2022-12-08T00:17:45;14.95;;;7.32;;
13202;SDS011;6666;51.626;7.530;2022-12-08T00:20:13;10.90;;;7.50;;
13202;SDS011;6666;51.626;7.530;2022-12-08T00:22:42;13.15;;;6.65;;
13202;SDS011;6666;51.626;7.530;2022-12-08T00:25:10;15.82;;;7.00;;
13202;SDS011;6666;51.626;7.530;2022-12-08T00:27:40;10.32;;;6.50;;
13202;SDS011;6666;51.626;7.530;2022-12-08T00:30:08;12.98;;;6.40;;
13202;SDS011;6666;51.626;7.530;2022-12-08T00:32:38;12.63;;;7.18;;
13202;SDS011;6666;51.626;7.530;2022-12-08T00:35:07;11.32;;;6.50;;
13202;SDS011;6666;51.626;7.530;2022-12-08T00:37:35;15.47;;;6.40;;
13202;SDS011;6666;51.626;7.530;2022-12-08T00:40:04;11.80;;;7.00;;
13202;SDS011;6666;51.626;7.530;2022-12-08T00:42:33;9.43;;;6.43;;
13202;SDS011;6666;51.626;7.530;2022-12-08T00:45:02;11.63;;;6.60;;
13202;SDS011;6666;51.626;7.530;2022-12-08T00:47:30;13.35;;;6.93;;
13202;SDS011;6666;51.626;7.530;2022-12-08T00:50:00;13.23;;;7.20;;
13202;SDS011;6666;51.626;7.530;2022-12-08T00:52:29;12.60;;;7.53;;
13202;SDS011;6666;51.626;7.530;2022-12-08T00:54:57;14.02;;;7.93;;
13202;SDS011;6666;51.626;7.530;2022-12-08T00:57:25;15.55;;;8.18;;
13202;SDS011;6666;51.626;7.530;2022-12-08T00:59:54;13.80;;;8.07;;
13202;SDS011;6666;51.626;7.530;2022-12-08T01:02:22;14.40;;;8.77;;
13202;SDS011;6666;51.626;7.530;2022-12-08T01:04:51;15.73;;;9.10;;
13202;SDS011;6666;51.626;7.530;2022-12-08T01:07:20;15.23;;;9.63;;
13202;SDS011;6666;51.626;7.530;2022-12-08T01:09:49;14.67;;;9.67;;
13202;SDS011;6666;51.626;7.530;2022-12-08T01:12:18;16.15;;;9.40;;
13202;SDS011;6666;51.626;7.530;2022-12-08T01:14:46;16.23;;;9.55;;
13202;SDS011;6666;51.626;7.530;2022-12-08T01:17:14;17.08;;;10.35;;
13202;SDS011;6666;51.626;7.530;2022-12-08T01:19:43;16.17;;;10.00;;
13202;SDS011;6666;51.626;7.530;2022-12-08T01:22:12;21.58;;;11.20;;
13202;SDS011;6666;51.626;7.530;2022-12-08T01:24:41;17.90;;;10.90;;
13202;SDS011;6666;51.626;7.530;2022-12-08T01:27:09;19.33;;;11.45;;
13202;SDS011;6666;51.626;7.530;2022-12-08T01:29:38;19.77;;;10.90;;
13202;SDS011;6666;51.626;7.530;2022-12-08T01:32:06;19.33;;;11.57;;
13202;SDS011;6666;51.626;7.530;2022-12-08T01:34:35;20.70;;;11.77;;
13202;SDS011;6666;51.626;7.530;2022-12-08T01:37:04;19.42;;;11.20;;
13202;SDS011;6666;51.626;7.530;2022-12-08T01:39:32;20.35;;;11.75;;
13202;SDS011;6666;51.626;7.530;2022-12-08T01:42:03;26.05;;;11.80;;
13202;SDS011;6666;51.626;7.530;2022-12-08T01:47:35;20.42;;;11.23;;
13202;SDS011;6666;51.626;7.530;2022-12-08T01:50:09;23.08;;;11.75;;
13202;SDS011;6666;51.626;7.530;2022-12-08T01:52:39;20.93;;;10.50;;
13202;SDS011;6666;51.626;7.530;2022-12-08T01:55:14;19.83;;;11.10;;
13202;SDS011;6666;51.626;7.530;2022-12-08T01:57:47;17.13;;;10.65;;
13202;SDS011;6666;51.626;7.530;2022-12-08T02:00:18;17.83;;;10.30;;
13202;SDS011;6666;51.626;7.530;2022-12-08T02:02:54;24.42;;;10.80;;
13202;SDS011;6666;51.626;7.530;2022-12-08T02:05:26;24.67;;;11.55;;
13202;SDS011;6666;51.626;7.530;2022-12-08T02:07:57;19.20;;;10.20;;
13202;SDS011;6666;51.626;7.530;2022-12-08T02:10:27;19.10;;;10.90;;
13202;SDS011;6666;51.626;7.530;2022-12-08T02:13:00;18.53;;;9.70;;
13202;SDS011;6666;51.626;7.530;2022-12-08T02:15:31;20.67;;;10.70;;
13202;SDS011;6666;51.626;7.530;2022-12-08T02:18:12;18.53;;;10.30;;
13202;SDS011;6666;51.626;7.530;2022-12-08T02:20:51;16.27;;;9.40;;
13202;SDS011;6666;51.626;7.530;2022-12-08T02:23:26;15.05;;;9.63;;
13202;SDS011;6666;51.626;7.530;2022-12-08T02:26:07;15.98;;;9.80;;
13202;SDS011;6666;51.626;7.530;2022-12-08T02:29:05;17.38;;;9.40;;
13202;SDS011;6666;51.626;7.530;2022-12-08T02:32:01;19.67;;;9.93;;
13202;SDS011;6666;51.626;7.530;2022-12-08T02:34:47;16.88;;;9.32;;
13202;SDS011;6666;51.626;7.530;2022-12-08T02:37:21;13.48;;;8.93;;
13202;SDS011;6666;51.626;7.530;2022-12-08T02:39:57;13.98;;;9.15;;
13202;SDS011;6666;51.626;7.530;2022-12-08T02:42:30;16.90;;;9.15;;
13202;SDS011;6666;51.626;7.530;2022-12-08T02:45:05;15.45;;;8.95;;
13202;SDS011;6666;51.626;7.530;2022-12-08T02:47:38;17.27;;;10.15;;
13202;SDS011;6666;51.626;7.530;2022-12-08T02:50:09;20.57;;;10.00;;
13202;SDS011;6666;51.626;7.530;2022-12-08T02:52:40;17.52;;;9.27;;
13202;SDS011;6666;51.626;7.530;2022-12-08T02:55:12;19.23;;;9.85;;
13202;SDS011;6666;51.626;7.530;2022-12-08T02:57:51;17.48;;;9.43;;
13202;SDS011;6666;51.626;7.530;2022-12-08T03:00:38;19.20;;;10.73;;
13202;SDS011;6666;51.626;7.530;2022-12-08T03:03:18;19.67;;;10.77;;
13202;SDS011;6666;51.626;7.530;2022-12-08T03:05:59;21.40;;;10.50;;
13202;SDS011;6666;51.626;7.530;2022-12-08T03:08:34;18.77;;;10.13;;
13202;SDS011;6666;51.626;7.530;2022-12-08T03:11:12;17.02;;;10.60;;
13202;SDS011;6666;51.626;7.530;2022-12-08T03:13:46;16.73;;;10.23;;
13202;SDS011;6666;51.626;7.530;2022-12-08T03:16:18;21.95;;;11.02;;
13202;SDS011;6666;51.626;7.530;2022-12-08T03:18:51;19.70;;;11.00;;
13202;SDS011;6666;51.626;7.530;2022-12-08T03:21:27;17.38;;;10.60;;
13202;SDS011;6666;51.626;7.530;2022-12-08T03:23:57;19.10;;;11.75;;
13202;SDS011;6666;51.626;7.530;2022-12-08T03:26:27;20.77;;;11.40;;
13202;SDS011;6666;51.626;7.530;2022-12-08T03:29:01;21.33;;;12.25;;
13202;SDS011;6666;51.626;7.530;2022-12-08T03:31:30;22.20;;;11.40;;
13202;SDS011;6666;51.626;7.530;2022-12-08T03:34:01;21.15;;;11.60;;
13202;SDS011;6666;51.626;7.530;2022-12-08T03:36:32;19.50;;;11.40;;
13202;SDS011;6666;51.626;7.530;2022-12-08T03:39:01;15.55;;;10.00;;
13202;SDS011;6666;51.626;7.530;2022-12-08T03:41:29;18.70;;;10.73;;
13202;SDS011;6666;51.626;7.530;2022-12-08T03:43:57;22.52;;;11.77;;
13202;SDS011;6666;51.626;7.530;2022-12-08T03:46:26;20.92;;;11.50;;
13202;SDS011;6666;51.626;7.530;2022-12-08T03:48:55;18.30;;;11.10;;
13202;SDS011;6666;51.626;7.530;2022-12-08T03:51:24;17.90;;;11.23;;
13202;SDS011;6666;51.626;7.530;2022-12-08T03:53:54;19.17;;;11.90;;
13202;SDS011;6666;51.626;7.530;2022-12-08T03:56:23;20.38;;;11.93;;
13202;SDS011;6666;51.626;7.530;2022-12-08T03:58:53;22.02;;;12.18;;
13202;SDS011;6666;51.626;7.530;2022-12-08T04:01:22;22.70;;;12.30;;
13202;SDS011;6666;51.626;7.530;2022-12-08T04:03:50;21.52;;;12.32;;
13202;SDS011;6666;51.626;7.530;2022-12-08T04:06:20;23.17;;;11.60;;
13202;SDS011;6666;51.626;7.530;2022-12-08T04:08:48;22.48;;;12.45;;
13202;SDS011;6666;51.626;7.530;2022-12-08T04:11:18;20.85;;;12.35;;
13202;SDS011;6666;51.626;7.530;2022-12-08T04:13:47;22.15;;;11.10;;
13202;SDS011;6666;51.626;7.530;2022-12-08T04:16:16;21.60;;;12.35;;
13202;SDS011;6666;51.626;7.530;2022-12-08T04:18:45;22.42;;;12.38;;
13202;SDS011;6666;51.626;7.530;2022-12-08T04:21:14;22.45;;;12.18;;
13202;SDS011;6666;51.626;7.530;2022-12-08T04:23:42;21.98;;;11.98;;
13202;SDS011;6666;51.626;7.530;2022-12-08T04:26:11;23.33;;;12.93;;
13202;SDS011;6666;51.626;7.530;2022-12-08T04:28:41;25.58;;;12.10;;
13202;SDS011;6666;51.626;7.530;2022-12-08T04:31:10;22.17;;;12.23;;
13202;SDS011;6666;51.626;7.530;2022-12-08T04:33:38;24.98;;;11.73;;
13202;SDS011;6666;51.626;7.530;2022-12-08T04:36:07;29.42;;;12.60;;
13202;SDS011;6666;51.626;7.530;2022-12-08T04:38:36;24.38;;;11.60;;
13202;SDS011;6666;51.626;7.530;2022-12-08T04:41:04;26.00;;;12.60;;
13202;SDS011;6666;51.626;7.530;2022-12-08T04:43:32;24.55;;;12.52;;
13202;SDS011;6666;51.626;7.530;2022-12-08T04:46:05;23.90;;;12.88;;
13202;SDS011;6666;51.626;7.530;2022-12-08T04:48:35;23.77;;;11.98;;
13202;SDS011;6666;51.626;7.530;2022-12-08T04:51:04;23.83;;;12.65;;
13202;SDS011;6666;51.626;7.530;2022-12-08T04:53:34;26.38;;;12.73;;
13202;SDS011;6666;51.626;7.530;2022-12-08T04:56:09;20.65;;;12.18;;
13202;SDS011;6666;51.626;7.530;2022-12-08T04:58:38;26.38;;;12.50;;
13202;SDS011;6666;51.626;7.530;2022-12-08T05:01:08;23.30;;;12.55;;
13202;SDS011;6666;51.626;7.530;2022-12-08T05:03:37;23.73;;;11.98;;
13202;SDS011;6666;51.626;7.530;2022-12-08T05:06:06;25.05;;;13.27;;
13202;SDS011;6666;51.626;7.530;2022-12-08T05:08:36;22.25;;;12.10;;
13202;SDS011;6666;51.626;7.530;2022-12-08T05:11:05;23.40;;;12.53;;
13202;SDS011;6666;51.626;7.530;2022-12-08T05:13:35;22.38;;;12.40;;
13202;SDS011;6666;51.626;7.530;2022-12-08T05:16:03;23.53;;;12.80;;
13202;SDS011;6666;51.626;7.530;2022-12-08T05:18:35;20.87;;;12.03;;
13202;SDS011;6666;51.626;7.530;2022-12-08T05:21:04;23.95;;;13.43;;
13202;SDS011;6666;51.626;7.530;2022-12-08T05:23:33;22.35;;;12.15;;
13202;SDS011;6666;51.626;7.530;2022-12-08T05:26:01;22.30;;;12.38;;
13202;SDS011;6666;51.626;7.530;2022-12-08T05:28:30;20.90;;;11.02;;
13202;SDS011;6666;51.626;7.530;2022-12-08T05:31:07;24.25;;;12.15;;
13202;SDS011;6666;51.626;7.530;2022-12-08T05:33:36;26.02;;;12.00;;
13202;SDS011;6666;51.626;7.530;2022-12-08T05:36:05;22.17;;;12.43;;
13202;SDS011;6666;51.626;7.530;2022-12-08T05:38:33;20.50;;;10.70;;
13202;SDS011;6666;51.626;7.530;2022-12-08T05:41:02;25.33;;;12.38;;
13202;SDS011;6666;51.626;7.530;2022-12-08T05:43:30;20.50;;;11.93;;
13202;SDS011;6666;51.626;7.530;2022-12-08T05:45:59;21.40;;;12.10;;
13202;SDS011;6666;51.626;7.530;2022-12-08T05:48:28;21.17;;;10.10;;
13202;SDS011;6666;51.626;7.530;2022-12-08T05:50:57;16.40;;;10.00;;
13202;SDS011;6666;51.626;7.530;2022-12-08T05:53:26;21.30;;;10.60;;
13202;SDS011;6666;51.626;7.530;2022-12-08T05:55:55;16.42;;;9.43;;
13202;SDS011;6666;51.626;7.530;2022-12-08T05:58:23;21.45;;;10.80;;
13202;SDS011;6666;51.626;7.530;2022-12-08T06:00:51;18.60;;;10.30;;
13202;SDS011;6666;51.626;7.530;2022-12-08T06:03:19;16.70;;;9.80;;
13202;SDS011;6666;51.626;7.530;2022-12-08T06:05:48;18.27;;;9.80;;
13202;SDS011;6666;51.626;7.530;2022-12-08T06:08:17;16.98;;;9.50;;
13202;SDS011;6666;51.626;7.530;2022-12-08T06:10:46;15.13;;;8.63;;
13202;SDS011;6666;51.626;7.530;2022-12-08T06:13:15;16.27;;;9.50;;
13202;SDS011;6666;51.626;7.530;2022-12-08T06:15:43;16.15;;;9.23;;
13202;SDS011;6666;51.626;7.530;2022-12-08T06:18:11;14.47;;;8.60;;
13202;SDS011;6666;51.626;7.530;2022-12-08T06:20:39;15.53;;;8.90;;
13202;SDS011;6666;51.626;7.530;2022-12-08T06:23:08;17.87;;;9.27;;
13202;SDS011;6666;51.626;7.530;2022-12-08T06:25:37;17.60;;;9.40;;
13202;SDS011;6666;51.626;7.530;2022-12-08T06:28:05;17.20;;;9.98;;
13202;SDS011;6666;51.626;7.530;2022-12-08T06:30:34;17.02;;;10.05;;
13202;SDS011;6666;51.626;7.530;2022-12-08T06:33:03;19.00;;;10.50;;
13202;SDS011;6666;51.626;7.530;2022-12-08T06:35:32;19.17;;;10.40;;
13202;SDS011;6666;51.626;7.530;2022-12-08T06:38:00;19.27;;;10.90;;
13202;SDS011;6666;51.626;7.530;2022-12-08T06:40:28;19.57;;;11.00;;
13202;SDS011;6666;51.626;7.530;2022-12-08T06:42:58;20.13;;;10.57;;
13202;SDS011;6666;51.626;7.530;2022-12-08T06:45:26;22.67;;;11.40;;
13202;SDS011;6666;51.626;7.530;2022-12-08T06:47:54;22.63;;;10.88;;
13202;SDS011;6666;51.626;7.530;2022-12-08T06:50:22;18.38;;;10.20;;
13202;SDS011;6666;51.626;7.530;2022-12-08T06:52:51;17.88;;;10.30;;
13202;SDS011;6666;51.626;7.530;2022-12-08T06:55:30;18.25;;;10.60;;
13202;SDS011;6666;51.626;7.530;2022-12-08T06:58:20;18.77;;;11.00;;
13202;SDS011;6666;51.626;7.530;2022-12-08T07:00:48;26.15;;;11.60;;
13202;SDS011;6666;51.626;7.530;2022-12-08T07:03:17;23.45;;;10.48;;
13202;SDS011;6666;51.626;7.530;2022-12-08T07:05:45;18.23;;;10.40;;
13202;SDS011;6666;51.626;7.530;2022-12-08T07:08:13;20.60;;;9.83;;
13202;SDS011;6666;51.626;7.530;2022-12-08T07:10:42;19.85;;;10.23;;
13202;SDS011;6666;51.626;7.530;2022-12-08T07:13:10;17.27;;;10.43;;
13202;SDS011;6666;51.626;7.530;2022-12-08T07:15:39;23.80;;;13.35;;
13202;SDS011;6666;51.626;7.530;2022-12-08T07:18:08;17.55;;;9.23;;
13202;SDS011;6666;51.626;7.530;2022-12-08T07:20:36;14.13;;;8.45;;
13202;SDS011;6666;51.626;7.530;2022-12-08T07:23:04;17.85;;;9.48;;
13202;SDS011;6666;51.626;7.530;2022-12-08T07:25:33;17.88;;;9.20;;
13202;SDS011;6666;51.626;7.530;2022-12-08T07:28:06;18.27;;;8.98;;
13202;SDS011;6666;51.626;7.530;2022-12-08T07:30:35;15.63;;;8.40;;
13202;SDS011;6666;51.626;7.530;2022-12-08T07:33:05;14.47;;;8.03;;
13202;SDS011;6666;51.626;7.530;2022-12-08T07:35:33;14.80;;;8.00;;
13202;SDS011;6666;51.626;7.530;2022-12-08T07:38:01;13.27;;;7.30;;
13202;SDS011;6666;51.626;7.530;2022-12-08T07:40:30;13.02;;;6.88;;
13202;SDS011;6666;51.626;7.530;2022-12-08T07:42:58;13.00;;;7.55;;
13202;SDS011;6666;51.626;7.530;2022-12-08T07:45:26;14.45;;;8.00;;
13202;SDS011;6666;51.626;7.530;2022-12-08T07:47:57;16.98;;;8.50;;
13202;SDS011;6666;51.626;7.530;2022-12-08T07:50:27;18.40;;;8.38;;
13202;SDS011;6666;51.626;7.530;2022-12-08T07:52:55;14.85;;;7.63;;
13202;SDS011;6666;51.626;7.530;2022-12-08T07:55:23;12.80;;;7.55;;
13202;SDS011;6666;51.626;7.530;2022-12-08T07:57:52;18.08;;;7.93;;
13202;SDS011;6666;51.626;7.530;2022-12-08T08:00:20;14.68;;;7.88;;
13202;SDS011;6666;51.626;7.530;2022-12-08T08:02:48;14.63;;;7.72;;
13202;SDS011;6666;51.626;7.530;2022-12-08T08:05:17;17.23;;;8.10;;
13202;SDS011;6666;51.626;7.530;2022-12-08T08:07:47;16.23;;;7.25;;
13202;SDS011;6666;51.626;7.530;2022-12-08T08:10:15;18.70;;;8.07;;
13202;SDS011;6666;51.626;7.530;2022-12-08T08:12:44;13.80;;;6.57;;
13202;SDS011;6666;51.626;7.530;2022-12-08T08:15:12;11.45;;;6.78;;
13202;SDS011;6666;51.626;7.530;2022-12-08T08:17:41;12.67;;;6.80;;
13202;SDS011;6666;51.626;7.530;2022-12-08T08:20:10;12.15;;;6.50;;
13202;SDS011;6666;51.626;7.530;2022-12-08T08:22:39;15.40;;;6.40;;
13202;SDS011;6666;51.626;7.530;2022-12-08T08:25:09;15.90;;;7.88;;
13202;SDS011;6666;51.626;7.530;2022-12-08T08:27:37;15.82;;;7.00;;
13202;SDS011;6666;51.626;7.530;2022-12-08T08:30:05;12.00;;;7.00;;
13202;SDS011;6666;51.626;7.530;2022-12-08T08:32:35;14.52;;;6.47;;
13202;SDS011;6666;51.626;7.530;2022-12-08T08:35:04;15.63;;;7.00;;
13202;SDS011;6666;51.626;7.530;2022-12-08T08:37:32;17.30;;;7.78;;
13202;SDS011;6666;51.626;7.530;2022-12-08T08:40:00;15.63;;;6.78;;
13202;SDS011;6666;51.626;7.530;2022-12-08T08:42:30;12.50;;;7.18;;
13202;SDS011;6666;51.626;7.530;2022-12-08T08:44:59;12.07;;;6.70;;
13202;SDS011;6666;51.626;7.530;2022-12-08T08:47:27;12.02;;;6.43;;
13202;SDS011;6666;51.626;7.530;2022-12-08T08:49:55;11.90;;;6.90;;
13202;SDS011;6666;51.626;7.530;2022-12-08T08:52:23;12.23;;;6.35;;
13202;SDS011;6666;51.626;7.530;2022-12-08T08:54:52;11.40;;;6.70;;
13202;SDS011;6666;51.626;7.530;2022-12-08T08:57:20;11.25;;;7.07;;
13202;SDS011;6666;51.626;7.530;2022-12-08T08:59:53;11.13;;;7.13;;
13202;SDS011;6666;51.626;7.530;2022-12-08T09:02:22;9.23;;;6.40;;
13202;SDS011;6666;51.626;7.530;2022-12-08T09:04:50;12.55;;;7.05;;
13202;SDS011;6666;51.626;7.530;2022-12-08T09:07:19;13.30;;;7.15;;
13202;SDS011;6666;51.626;7.530;2022-12-08T09:09:47;15.48;;;7.53;;
13202;SDS011;6666;51.626;7.530;2022-12-08T09:12:15;13.60;;;7.07;;
13202;SDS011;6666;51.626;7.530;2022-12-08T09:14:45;12.70;;;7.53;;
13202;SDS011;6666;51.626;7.530;2022-12-08T09:17:14;11.15;;;7.30;;
13202;SDS011;6666;51.626;7.530;2022-12-08T09:19:43;13.55;;;7.53;;
13202;SDS011;6666;51.626;7.530;2022-12-08T09:22:12;13.20;;;7.80;;
13202;SDS011;6666;51.626;7.530;2022-12-08T09:24:41;13.70;;;7.50;;
13202;SDS011;6666;51.626;7.530;2022-12-08T09:27:10;11.50;;;7.05;;
13202;SDS011;6666;51.626;7.530;2022-12-08T09:29:38;10.90;;;6.90;;
13202;SDS011;6666;51.626;7.530;2022-12-08T09:32:06;11.98;;;7.40;;
13202;SDS011;6666;51.626;7.530;2022-12-08T09:34:37;11.70;;;7.13;;
13202;SDS011;6666;51.626;7.530;2022-12-08T09:37:05;13.13;;;7.47;;
13202;SDS011;6666;51.626;7.530;2022-12-08T09:39:33;11.48;;;6.70;;
13202;SDS011;6666;51.626;7.530;2022-12-08T09:42:02;12.23;;;6.88;;
13202;SDS011;6666;51.626;7.530;2022-12-08T09:44:36;11.73;;;7.18;;
13202;SDS011;6666;51.626;7.530;2022-12-08T09:47:17;10.05;;;7.00;;
13202;SDS011;6666;51.626;7.530;2022-12-08T09:49:51;12.63;;;8.23;;
13202;SDS011;6666;51.626;7.530;2022-12-08T09:52:30;15.82;;;8.80;;
13202;SDS011;6666;51.626;7.530;2022-12-08T09:55:05;14.20;;;8.10;;
13202;SDS011;6666;51.626;7.530;2022-12-08T09:57:40;15.73;;;8.30;;
13202;SDS011;6666;51.626;7.530;2022-12-08T10:00:10;16.25;;;8.38;;
13202;SDS011;6666;51.626;7.530;2022-12-08T10:02:40;15.93;;;8.27;;
13202;SDS011;6666;51.626;7.530;2022-12-08T10:05:12;16.17;;;9.10;;
13202;SDS011;6666;51.626;7.530;2022-12-08T10:07:43;15.17;;;8.43;;
13202;SDS011;6666;51.626;7.530;2022-12-08T10:10:19;14.70;;;8.55;;
13202;SDS011;6666;51.626;7.530;2022-12-08T10:12:56;14.90;;;7.80;;
13202;SDS011;6666;51.626;7.530;2022-12-08T10:15:33;13.50;;;8.32;;
13202;SDS011;6666;51.626;7.530;2022-12-08T10:18:12;17.70;;;8.80;;
13202;SDS011;6666;51.626;7.530;2022-12-08T10:20:44;17.60;;;8.50;;
13202;SDS011;6666;51.626;7.530;2022-12-08T10:23:26;13.60;;;7.97;;
13202;SDS011;6666;51.626;7.530;2022-12-08T10:26:00;12.93;;;7.20;;
13202;SDS011;6666;51.626;7.530;2022-12-08T10:28:30;13.57;;;7.60;;
13202;SDS011;6666;51.626;7.530;2022-12-08T10:30:59;11.88;;;7.30;;
13202;SDS011;6666;51.626;7.530;2022-12-08T10:33:30;11.75;;;7.13;;
13202;SDS011;6666;51.626;7.530;2022-12-08T10:36:01;11.13;;;6.43;;
13202;SDS011;6666;51.626;7.530;2022-12-08T10:38:30;8.80;;;6.70;;
13202;SDS011;6666;51.626;7.530;2022-12-08T10:41:02;10.45;;;7.38;;
13202;SDS011;6666;51.626;7.530;2022-12-08T10:43:33;12.77;;;6.97;;
13202;SDS011;6666;51.626;7.530;2022-12-08T10:46:09;11.10;;;7.20;;
13202;SDS011;6666;51.626;7.530;2022-12-08T10:48:46;9.90;;;6.60;;
13202;SDS011;6666;51.626;7.530;2022-12-08T10:51:27;9.13;;;6.03;;
13202;SDS011;6666;51.626;7.530;2022-12-08T10:54:01;10.85;;;6.80;;
13202;SDS011;6666;51.626;7.530;2022-12-08T10:56:31;8.60;;;5.73;;
13202;SDS011;6666;51.626;7.530;2022-12-08T11:01:52;9.77;;;7.00;;
13202;SDS011;6666;51.626;7.530;2022-12-08T11:04:22;9.63;;;6.90;;
13202;SDS011;6666;51.626;7.530;2022-12-08T11:06:58;13.80;;;7.80;;
13202;SDS011;6666;51.626;7.530;2022-12-08T11:09:33;12.10;;;7.28;;
13202;SDS011;6666;51.626;7.530;2022-12-08T11:12:08;14.88;;;7.90;;
13202;SDS011;6666;51.626;7.530;2022-12-08T11:14:47;17.58;;;8.88;;
13202;SDS011;6666;51.626;7.530;2022-12-08T11:17:22;13.13;;;8.50;;
13202;SDS011;6666;51.626;7.530;2022-12-08T11:19:57;15.93;;;9.02;;
13202;SDS011;6666;51.626;7.530;2022-12-08T11:22:30;11.95;;;7.90;;
13202;SDS011;6666;51.626;7.530;2022-12-08T11:25:00;14.00;;;8.05;;
13202;SDS011;6666;51.626;7.530;2022-12-08T11:27:37;15.10;;;8.65;;
13202;SDS011;6666;51.626;7.530;2022-12-08T11:30:11;16.77;;;8.05;;
13202;SDS011;6666;51.626;7.530;2022-12-08T11:32:43;16.05;;;8.93;;
13202;SDS011;6666;51.626;7.530;2022-12-08T11:35:16;17.63;;;9.02;;
13202;SDS011;6666;51.626;7.530;2022-12-08T11:37:50;21.45;;;9.77;;
13202;SDS011;6666;51.626;7.530;2022-12-08T11:40:39;22.80;;;9.70;;
13202;SDS011;6666;51.626;7.530;2022-12-08T11:43:11;17.67;;;8.60;;
13202;SDS011;6666;51.626;7.530;2022-12-08T11:45:45;13.05;;;7.28;;
13202;SDS011;6666;51.626;7.530;2022-12-08T11:48:18;15.60;;;7.60;;
13202;SDS011;6666;51.626;7.530;2022-12-08T11:50:54;13.15;;;6.88;;
13202;SDS011;6666;51.626;7.530;2022-12-08T11:53:28;11.60;;;5.50;;
13202;SDS011;6666;51.626;7.530;2022-12-08T11:56:05;10.73;;;6.32;;
13202;SDS011;6666;51.626;7.530;2022-12-08T11:58:40;12.65;;;6.97;;
13202;SDS011;6666;51.626;7.530;2022-12-08T12:01:12;12.98;;;6.90;;
13202;SDS011;6666;51.626;7.530;2022-12-08T12:03:47;10.63;;;6.30;;
13202;SDS011;6666;51.626;7.530;2022-12-08T12:06:31;12.02;;;6.70;;
13202;SDS011;6666;51.626;7.530;2022-12-08T12:09:24;15.90;;;7.60;;
13202;SDS011;6666;51.626;7.530;2022-12-08T12:12:07;21.00;;;8.73;;
13202;SDS011;6666;51.626;7.530;2022-12-08T12:14:51;16.58;;;8.18;;
13202;SDS011;6666;51.626;7.530;2022-12-08T12:17:40;15.07;;;7.20;;
13202;SDS011;6666;51.626;7.530;2022-12-08T12:20:14;13.68;;;6.45;;
13202;SDS011;6666;51.626;7.530;2022-12-08T12:22:47;10.82;;;5.93;;
13202;SDS011;6666;51.626;7.530;2022-12-08T12:25:20;9.82;;;5.85;;
13202;SDS011;6666;51.626;7.530;2022-12-08T12:27:50;11.07;;;7.00;;
13202;SDS011;6666;51.626;7.530;2022-12-08T12:30:23;11.50;;;6.85;;
13202;SDS011;6666;51.626;7.530;2022-12-08T12:32:54;11.35;;;7.30;;
13202;SDS011;6666;51.626;7.530;2022-12-08T12:35:26;11.25;;;7.70;;
13202;SDS011;6666;51.626;7.530;2022-12-08T12:38:00;11.38;;;7.40;;
13202;SDS011;6666;51.626;7.530;2022-12-08T12:40:52;10.75;;;7.85;;
13202;SDS011;6666;51.626;7.530;2022-12-08T12:43:28;12.63;;;7.95;;
13202;SDS011;6666;51.626;7.530;2022-12-08T12:52:01;12.32;;;8.20;;
13202;SDS011;6666;51.626;7.530;2022-12-08T12:54:30;14.15;;;7.97;;
13202;SDS011;6666;51.626;7.530;2022-12-08T13:02:45;12.85;;;7.90;;
13202;SDS011;6666;51.626;7.530;2022-12-08T13:05:16;13.50;;;7.55;;
13202;SDS011;6666;51.626;7.530;2022-12-08T13:07:48;11.65;;;7.72;;
13202;SDS011;6666;51.626;7.530;2022-12-08T13:10:20;10.40;;;7.18;;
13202;SDS011;6666;51.626;7.530;2022-12-08T13:13:03;13.05;;;8.15;;
13202;SDS011;6666;51.626;7.530;2022-12-08T13:15:47;12.10;;;8.25;;
13202;SDS011;6666;51.626;7.530;2022-12-08T13:18:18;13.15;;;8.18;;
13202;SDS011;6666;51.626;7.530;2022-12-08T13:20:49;10.57;;;7.50;;
13202;SDS011;6666;51.626;7.530;2022-12-08T13:23:25;12.43;;;7.50;;
13202;SDS011;6666;51.626;7.530;2022-12-08T13:26:10;11.80;;;7.20;;
13202;SDS011;6666;51.626;7.530;2022-12-08T13:31:48;11.18;;;7.30;;
13202;SDS011;6666;51.626;7.530;2022-12-08T13:34:19;12.13;;;7.75;;
13202;SDS011;6666;51.626;7.530;2022-12-08T13:39:53;14.52;;;7.10;;
13202;SDS011;6666;51.626;7.530;2022-12-08T13:42:28;11.50;;;7.47;;
13202;SDS011;6666;51.626;7.530;2022-12-08T13:45:03;12.80;;;8.10;;
13202;SDS011;6666;51.626;7.530;2022-12-08T13:48:04;12.73;;;7.80;;
13202;SDS011;6666;51.626;7.530;2022-12-08T13:50:56;12.65;;;7.60;;
13202;SDS011;6666;51.626;7.530;2022-12-08T13:53:57;10.48;;;7.45;;
13202;SDS011;6666;51.626;7.530;2022-12-08T13:56:48;12.65;;;7.80;;
13202;SDS011;6666;51.626;7.530;2022-12-08T13:59:36;11.35;;;7.78;;
13202;SDS011;6666;51.626;7.530;2022-12-08T14:02:13;13.02;;;8.18;;
13202;SDS011;6666;51.626;7.530;2022-12-08T14:04:46;13.82;;;8.30;;
13202;SDS011;6666;51.626;7.530;2022-12-08T14:07:34;14.55;;;9.30;;
13202;SDS011;6666;51.626;7.530;2022-12-08T14:10:06;13.50;;;8.60;;
13202;SDS011;6666;51.626;7.530;2022-12-08T14:12:36;14.65;;;9.20;;
13202;SDS011;6666;51.626;7.530;2022-12-08T14:15:06;16.08;;;9.45;;
13202;SDS011;6666;51.626;7.530;2022-12-08T14:17:39;14.60;;;9.50;;
13202;SDS011;6666;51.626;7.530;2022-12-08T14:20:17;14.48;;;9.30;;
13202;SDS011;6666;51.626;7.530;2022-12-08T14:22:50;15.25;;;8.85;;
13202;SDS011;6666;51.626;7.530;2022-12-08T14:25:19;15.25;;;9.38;;
13202;SDS011;6666;51.626;7.530;2022-12-08T14:27:49;17.00;;;9.00;;
13202;SDS011;6666;51.626;7.530;2022-12-08T14:30:23;14.30;;;9.20;;
13202;SDS011;6666;51.626;7.530;2022-12-08T14:32:53;16.30;;;8.75;;
13202;SDS011;6666;51.626;7.530;2022-12-08T14:35:25;15.37;;;9.20;;
13202;SDS011;6666;51.626;7.530;2022-12-08T14:37:56;14.35;;;8.93;;
13202;SDS011;6666;51.626;7.530;2022-12-08T14:40:28;12.68;;;9.18;;
13202;SDS011;6666;51.626;7.530;2022-12-08T14:43:11;12.30;;;8.25;;
13202;SDS011;6666;51.626;7.530;2022-12-08T14:45:46;13.70;;;8.50;;
13202;SDS011;6666;51.626;7.530;2022-12-08T14:48:20;14.40;;;8.88;;
13202;SDS011;6666;51.626;7.530;2022-12-08T14:50:56;13.05;;;8.18;;
13202;SDS011;6666;51.626;7.530;2022-12-08T14:53:28;13.93;;;8.60;;
13202;SDS011;6666;51.626;7.530;2022-12-08T14:56:05;15.05;;;8.77;;
13202;SDS011;6666;51.626;7.530;2022-12-08T14:58:36;13.40;;;8.73;;
13202;SDS011;6666;51.626;7.530;2022-12-08T15:01:04;16.83;;;9.50;;
13202;SDS011;6666;51.626;7.530;2022-12-08T15:03:35;17.20;;;9.17;;
13202;SDS011;6666;51.626;7.530;2022-12-08T15:06:05;16.37;;;9.27;;
13202;SDS011;6666;51.626;7.530;2022-12-08T15:08:49;16.40;;;9.30;;
13202;SDS011;6666;51.626;7.530;2022-12-08T15:11:28;18.17;;;10.07;;
13202;SDS011;6666;51.626;7.530;2022-12-08T15:13:58;16.58;;;10.65;;
13202;SDS011;6666;51.626;7.530;2022-12-08T15:16:28;18.50;;;10.20;;
13202;SDS011;6666;51.626;7.530;2022-12-08T15:19:00;17.95;;;10.18;;
13202;SDS011;6666;51.626;7.530;2022-12-08T15:21:33;18.63;;;10.15;;
13202;SDS011;6666;51.626;7.530;2022-12-08T15:24:04;17.23;;;9.70;;
13202;SDS011;6666;51.626;7.530;2022-12-08T15:26:33;16.07;;;9.23;;
13202;SDS011;6666;51.626;7.530;2022-12-08T15:29:10;16.20;;;9.52;;
13202;SDS011;6666;51.626;7.530;2022-12-08T15:31:45;17.30;;;9.88;;
13202;SDS011;6666;51.626;7.530;2022-12-08T15:34:13;19.58;;;9.60;;
13202;SDS011;6666;51.626;7.530;2022-12-08T15:36:43;15.85;;;8.98;;